PMI weather

Palma De Mallorca Airport
Palma De Mallorca, Baleares, Spain

Public forecast

Using degrees Celsius for public forecast. Weather courtesy of forecast.io.

Current aviation weather report (METAR) for Palma De Mallorca Airport

Retrieved 2019/10/15 07:30 UTC (2 minutes ago):

LEPA 150730Z 33012KT 300V010 9999 FEW026 19/11 Q1015 NOSIG

Aviation forecast (TAF) for Palma De Mallorca Airport

Retrieved 2019/10/15 06:27 UTC (1 hour ago):

TAF LEPA 150500Z 1506/1606 30010KT 9999 FEW010 TX22/1512Z TN13/1506Z BECMG 1506/1507 32012KT BECMG 1518/1520 VRB05KT